Allouez, MI (49805)

1:44 AM EDT on July 28, 2016 (GMT -0400)
Calumet Township North End | | Change Station

Elev 1224 ft 47.25 °N, 88.44 °W | Updated 7 minutes ago

Overcast
Overcast
55.9 °F
Feels Like 55.9 °F
N
0.0
Wind Variable Wind from SSE

Today
High -- | Low -- °F
--% Chance of Precip.
Yesterday
High -- | Low -- °F
Precip. -- in
Pressure 30.03 in
Visibility 10.0 miles
Clouds Few 9000 ft
Overcast 12000 ft
Dew Point 53 °F
Humidity 91%
Rainfall 0.00 in
Snow Depth Not available.
6:27 AM 9:31 PM
Waning Crescent, 35% visible
METAR KCMX 280453Z AUTO 00000KT 10SM FEW090 OVC120 16/14 A3003 RMK AO2 SLP168 T01560139 402060156
Pressure 30.03 in
Visibility 10.0 miles
Clouds Few 9000 ft
Overcast 12000 ft
Dew Point 53 °F
Humidity 91%
Rainfall 0.00 in
Snow Depth Not available.
6:27 AM 9:31 PM
Waning Crescent, 35% visible
METAR KCMX 280453Z AUTO 00000KT 10SM FEW090 OVC120 16/14 A3003 RMK AO2 SLP168 T01560139 402060156

10-Day Weather Forecast

Almanac

Astronomy

Jul. 28, 2016 Rise Set
Actual Time
Civil Twilight
Nautical Twilight
Astronomical Twilight
Moon
Length of Visible Light
Length of Day
Tomorrow will be .
, % of the Moon is Illuminated

Today's Extremes

State Highs State Lows

Community

WunderPhotos

Upload Photos

1,928,064 photos uploaded!

WunderBlog® & News

Nearby

Air Quality

  Air Quality AQ Index Pollutant
Not available.

Snow Depth

Station Depth Elevation

Earthquake Activity

City Distance Mag. Time & Date
Minimum magnitude displayed is 2.5.

Coastal Water Temperatures

Place Temperature

Stations

Nearby Weather Stations

Station Location Temp. Windchill Dew Point Humidity Wind Precip. Elev Updated Type
                   

Watches & Warnings

There are currently no watches in effect.